sensor_id;sensor_type;location;lat;lon;timestamp;temperature;humidity
36552;DHT22;22559;54.176;12.102;2024-02-21T00:00:36;8.00;99.90
36552;DHT22;22559;54.176;12.102;2024-02-21T00:03:04;8.00;99.90
36552;DHT22;22559;54.176;12.102;2024-02-21T00:05:30;8.00;99.90
36552;DHT22;22559;54.176;12.102;2024-02-21T00:07:57;8.00;99.90
36552;DHT22;22559;54.176;12.102;2024-02-21T00:10:23;8.00;99.90
36552;DHT22;22559;54.176;12.102;2024-02-21T00:12:49;8.10;99.90
36552;DHT22;22559;54.176;12.102;2024-02-21T00:15:14;8.10;99.90
36552;DHT22;22559;54.176;12.102;2024-02-21T00:17:40;8.10;99.90
36552;DHT22;22559;54.176;12.102;2024-02-21T00:20:07;8.10;99.90
36552;DHT22;22559;54.176;12.102;2024-02-21T00:22:32;8.10;99.90
36552;DHT22;22559;54.176;12.102;2024-02-21T00:24:59;8.10;99.90
36552;DHT22;22559;54.176;12.102;2024-02-21T00:27:24;8.10;99.90
36552;DHT22;22559;54.176;12.102;2024-02-21T00:29:51;8.10;99.90
36552;DHT22;22559;54.176;12.102;2024-02-21T00:32:16;8.10;99.90
36552;DHT22;22559;54.176;12.102;2024-02-21T00:34:42;8.10;99.90
36552;DHT22;22559;54.176;12.102;2024-02-21T00:37:07;8.10;99.90
36552;DHT22;22559;54.176;12.102;2024-02-21T00:39:33;8.20;99.90
36552;DHT22;22559;54.176;12.102;2024-02-21T00:41:59;8.10;99.90
36552;DHT22;22559;54.176;12.102;2024-02-21T00:44:24;8.10;99.90
36552;DHT22;22559;54.176;12.102;2024-02-21T00:46:50;8.10;99.90
36552;DHT22;22559;54.176;12.102;2024-02-21T00:49:18;8.10;99.90
36552;DHT22;22559;54.176;12.102;2024-02-21T00:51:43;8.20;99.90
36552;DHT22;22559;54.176;12.102;2024-02-21T00:54:09;8.20;99.90
36552;DHT22;22559;54.176;12.102;2024-02-21T00:56:34;8.20;99.90
36552;DHT22;22559;54.176;12.102;2024-02-21T00:59:00;8.20;99.90
36552;DHT22;22559;54.176;12.102;2024-02-21T01:01:26;8.20;99.90
36552;DHT22;22559;54.176;12.102;2024-02-21T01:03:51;8.20;99.90
36552;DHT22;22559;54.176;12.102;2024-02-21T01:06:20;8.20;99.90
36552;DHT22;22559;54.176;12.102;2024-02-21T01:08:47;8.20;99.90
36552;DHT22;22559;54.176;12.102;2024-02-21T01:11:16;8.30;99.90
36552;DHT22;22559;54.176;12.102;2024-02-21T01:13:42;8.30;99.90
36552;DHT22;22559;54.176;12.102;2024-02-21T01:16:07;8.30;99.90
36552;DHT22;22559;54.176;12.102;2024-02-21T01:18:34;8.30;99.90
36552;DHT22;22559;54.176;12.102;2024-02-21T01:21:00;8.30;99.90
36552;DHT22;22559;54.176;12.102;2024-02-21T01:23:26;8.30;99.90
36552;DHT22;22559;54.176;12.102;2024-02-21T01:25:51;8.30;99.90
36552;DHT22;22559;54.176;12.102;2024-02-21T01:28:18;8.30;99.90
36552;DHT22;22559;54.176;12.102;2024-02-21T01:30:44;8.40;99.90
36552;DHT22;22559;54.176;12.102;2024-02-21T01:33:09;8.40;99.90
36552;DHT22;22559;54.176;12.102;2024-02-21T01:35:36;8.40;99.90
36552;DHT22;22559;54.176;12.102;2024-02-21T01:38:02;8.40;99.90
36552;DHT22;22559;54.176;12.102;2024-02-21T01:40:28;8.40;99.90
36552;DHT22;22559;54.176;12.102;2024-02-21T01:42:56;8.40;99.90
36552;DHT22;22559;54.176;12.102;2024-02-21T01:45:22;8.40;99.90
36552;DHT22;22559;54.176;12.102;2024-02-21T01:47:48;8.40;99.90
36552;DHT22;22559;54.176;12.102;2024-02-21T01:50:15;8.40;99.90
36552;DHT22;22559;54.176;12.102;2024-02-21T01:52:45;8.50;99.90
36552;DHT22;22559;54.176;12.102;2024-02-21T01:55:13;8.50;99.90
36552;DHT22;22559;54.176;12.102;2024-02-21T01:57:40;8.50;99.90
36552;DHT22;22559;54.176;12.102;2024-02-21T02:00:07;8.50;99.90
36552;DHT22;22559;54.176;12.102;2024-02-21T02:02:32;8.50;99.90
36552;DHT22;22559;54.176;12.102;2024-02-21T02:04:59;8.50;99.90
36552;DHT22;22559;54.176;12.102;2024-02-21T02:07:26;8.60;99.90
36552;DHT22;22559;54.176;12.102;2024-02-21T02:09:51;8.60;99.90
36552;DHT22;22559;54.176;12.102;2024-02-21T02:12:17;8.60;99.90
36552;DHT22;22559;54.176;12.102;2024-02-21T02:14:43;8.60;99.90
36552;DHT22;22559;54.176;12.102;2024-02-21T02:17:08;8.60;99.90
36552;DHT22;22559;54.176;12.102;2024-02-21T02:19:35;8.60;99.90
36552;DHT22;22559;54.176;12.102;2024-02-21T02:22:15;8.60;99.90
36552;DHT22;22559;54.176;12.102;2024-02-21T02:24:45;8.70;99.90
36552;DHT22;22559;54.176;12.102;2024-02-21T02:27:11;8.70;99.90
36552;DHT22;22559;54.176;12.102;2024-02-21T02:29:37;8.70;99.90
36552;DHT22;22559;54.176;12.102;2024-02-21T02:32:03;8.70;99.90
36552;DHT22;22559;54.176;12.102;2024-02-21T02:34:29;8.70;99.90
36552;DHT22;22559;54.176;12.102;2024-02-21T02:36:56;8.70;99.90
36552;DHT22;22559;54.176;12.102;2024-02-21T02:39:21;8.70;99.90
36552;DHT22;22559;54.176;12.102;2024-02-21T02:41:47;8.70;99.90
36552;DHT22;22559;54.176;12.102;2024-02-21T02:44:12;8.70;99.90
36552;DHT22;22559;54.176;12.102;2024-02-21T02:46:40;8.80;99.90
36552;DHT22;22559;54.176;12.102;2024-02-21T02:49:06;8.80;99.90
36552;DHT22;22559;54.176;12.102;2024-02-21T02:51:32;8.80;99.90
36552;DHT22;22559;54.176;12.102;2024-02-21T02:53:58;8.80;99.90
36552;DHT22;22559;54.176;12.102;2024-02-21T02:56:23;8.80;99.90
36552;DHT22;22559;54.176;12.102;2024-02-21T02:58:49;8.80;99.90
36552;DHT22;22559;54.176;12.102;2024-02-21T03:01:15;8.80;99.90
36552;DHT22;22559;54.176;12.102;2024-02-21T03:03:40;8.70;99.90
36552;DHT22;22559;54.176;12.102;2024-02-21T03:06:06;8.70;99.90
36552;DHT22;22559;54.176;12.102;2024-02-21T03:08:31;8.70;99.90
36552;DHT22;22559;54.176;12.102;2024-02-21T03:10:58;8.70;99.90
36552;DHT22;22559;54.176;12.102;2024-02-21T03:13:25;8.70;99.90
36552;DHT22;22559;54.176;12.102;2024-02-21T03:15:51;8.70;99.90
36552;DHT22;22559;54.176;12.102;2024-02-21T03:18:16;8.70;99.90
36552;DHT22;22559;54.176;12.102;2024-02-21T03:20:42;8.70;99.90
36552;DHT22;22559;54.176;12.102;2024-02-21T03:23:07;8.70;99.90
36552;DHT22;22559;54.176;12.102;2024-02-21T03:25:33;8.70;99.90
36552;DHT22;22559;54.176;12.102;2024-02-21T03:27:59;8.80;99.90
36552;DHT22;22559;54.176;12.102;2024-02-21T03:30:24;8.80;99.90
36552;DHT22;22559;54.176;12.102;2024-02-21T03:32:51;8.80;99.90
36552;DHT22;22559;54.176;12.102;2024-02-21T03:35:16;8.80;99.90
36552;DHT22;22559;54.176;12.102;2024-02-21T03:37:44;8.80;99.90
36552;DHT22;22559;54.176;12.102;2024-02-21T03:40:10;8.80;99.90
36552;DHT22;22559;54.176;12.102;2024-02-21T03:42:37;8.90;99.90
36552;DHT22;22559;54.176;12.102;2024-02-21T03:45:02;8.90;99.90
36552;DHT22;22559;54.176;12.102;2024-02-21T03:47:29;8.90;99.90
36552;DHT22;22559;54.176;12.102;2024-02-21T03:49:54;8.90;99.90
36552;DHT22;22559;54.176;12.102;2024-02-21T03:52:20;8.90;99.90
36552;DHT22;22559;54.176;12.102;2024-02-21T03:54:46;9.00;99.90
36552;DHT22;22559;54.176;12.102;2024-02-21T03:57:11;9.00;99.90
36552;DHT22;22559;54.176;12.102;2024-02-21T03:59:37;9.00;99.90
36552;DHT22;22559;54.176;12.102;2024-02-21T04:02:05;9.00;99.90
36552;DHT22;22559;54.176;12.102;2024-02-21T04:04:36;9.00;99.90
36552;DHT22;22559;54.176;12.102;2024-02-21T04:07:03;9.10;99.90
36552;DHT22;22559;54.176;12.102;2024-02-21T04:09:34;9.00;99.90
36552;DHT22;22559;54.176;12.102;2024-02-21T04:12:00;9.10;99.90
36552;DHT22;22559;54.176;12.102;2024-02-21T04:14:26;9.10;99.90
36552;DHT22;22559;54.176;12.102;2024-02-21T04:16:52;9.10;99.90
36552;DHT22;22559;54.176;12.102;2024-02-21T04:19:17;9.10;99.90
36552;DHT22;22559;54.176;12.102;2024-02-21T04:21:43;9.10;99.90
36552;DHT22;22559;54.176;12.102;2024-02-21T04:24:08;9.10;99.90
36552;DHT22;22559;54.176;12.102;2024-02-21T04:26:34;9.10;99.90
36552;DHT22;22559;54.176;12.102;2024-02-21T04:29:00;9.10;99.90
36552;DHT22;22559;54.176;12.102;2024-02-21T04:31:26;9.20;99.90
36552;DHT22;22559;54.176;12.102;2024-02-21T04:33:51;9.10;99.90
36552;DHT22;22559;54.176;12.102;2024-02-21T04:36:17;9.20;99.90
36552;DHT22;22559;54.176;12.102;2024-02-21T04:38:42;9.20;99.90
36552;DHT22;22559;54.176;12.102;2024-02-21T04:41:08;9.20;99.90
36552;DHT22;22559;54.176;12.102;2024-02-21T04:43:34;9.20;99.90
36552;DHT22;22559;54.176;12.102;2024-02-21T04:45:59;9.20;99.90
36552;DHT22;22559;54.176;12.102;2024-02-21T04:48:25;9.20;99.90
36552;DHT22;22559;54.176;12.102;2024-02-21T04:50:51;9.10;99.90
36552;DHT22;22559;54.176;12.102;2024-02-21T04:53:17;9.10;99.90
36552;DHT22;22559;54.176;12.102;2024-02-21T04:55:42;9.10;99.90
36552;DHT22;22559;54.176;12.102;2024-02-21T04:58:08;9.10;99.90
36552;DHT22;22559;54.176;12.102;2024-02-21T05:00:34;9.00;99.90
36552;DHT22;22559;54.176;12.102;2024-02-21T05:02:59;9.00;99.90
36552;DHT22;22559;54.176;12.102;2024-02-21T05:05:25;9.00;99.90
36552;DHT22;22559;54.176;12.102;2024-02-21T05:07:51;9.00;99.90
36552;DHT22;22559;54.176;12.102;2024-02-21T05:10:16;9.00;99.90
36552;DHT22;22559;54.176;12.102;2024-02-21T05:12:43;9.00;99.90
36552;DHT22;22559;54.176;12.102;2024-02-21T05:15:08;9.00;99.90
36552;DHT22;22559;54.176;12.102;2024-02-21T05:17:34;8.90;99.90
36552;DHT22;22559;54.176;12.102;2024-02-21T05:20:00;8.90;99.90
36552;DHT22;22559;54.176;12.102;2024-02-21T05:22:25;8.90;99.90
36552;DHT22;22559;54.176;12.102;2024-02-21T05:24:51;8.90;99.90
36552;DHT22;22559;54.176;12.102;2024-02-21T05:27:17;8.90;99.90
36552;DHT22;22559;54.176;12.102;2024-02-21T05:29:42;8.90;99.90
36552;DHT22;22559;54.176;12.102;2024-02-21T05:32:08;8.90;99.90
36552;DHT22;22559;54.176;12.102;2024-02-21T05:34:33;9.00;99.90
36552;DHT22;22559;54.176;12.102;2024-02-21T05:36:59;8.90;99.90
36552;DHT22;22559;54.176;12.102;2024-02-21T05:39:26;9.00;99.90
36552;DHT22;22559;54.176;12.102;2024-02-21T05:41:51;8.90;99.90
36552;DHT22;22559;54.176;12.102;2024-02-21T05:44:18;8.90;99.90
36552;DHT22;22559;54.176;12.102;2024-02-21T05:46:43;9.00;99.90
36552;DHT22;22559;54.176;12.102;2024-02-21T05:49:09;9.00;99.90
36552;DHT22;22559;54.176;12.102;2024-02-21T05:51:35;8.90;99.90
36552;DHT22;22559;54.176;12.102;2024-02-21T05:54:01;8.70;99.90
36552;DHT22;22559;54.176;12.102;2024-02-21T05:56:26;8.60;99.90
36552;DHT22;22559;54.176;12.102;2024-02-21T05:58:52;8.40;99.90
36552;DHT22;22559;54.176;12.102;2024-02-21T06:01:18;8.40;99.90
36552;DHT22;22559;54.176;12.102;2024-02-21T06:03:43;8.30;99.90
36552;DHT22;22559;54.176;12.102;2024-02-21T06:06:09;8.40;99.90
36552;DHT22;22559;54.176;12.102;2024-02-21T06:08:35;8.30;99.90
36552;DHT22;22559;54.176;12.102;2024-02-21T06:11:00;8.30;99.90
36552;DHT22;22559;54.176;12.102;2024-02-21T06:13:26;8.30;99.90
36552;DHT22;22559;54.176;12.102;2024-02-21T06:15:52;8.30;99.90
36552;DHT22;22559;54.176;12.102;2024-02-21T06:18:18;8.20;99.90
36552;DHT22;22559;54.176;12.102;2024-02-21T06:20:44;8.20;99.90
36552;DHT22;22559;54.176;12.102;2024-02-21T06:23:12;8.20;99.90
36552;DHT22;22559;54.176;12.102;2024-02-21T06:25:38;8.20;99.90
36552;DHT22;22559;54.176;12.102;2024-02-21T06:28:04;8.10;99.90
36552;DHT22;22559;54.176;12.102;2024-02-21T06:30:30;8.10;99.90
36552;DHT22;22559;54.176;12.102;2024-02-21T06:32:55;8.10;99.90
36552;DHT22;22559;54.176;12.102;2024-02-21T06:35:24;8.10;99.90
36552;DHT22;22559;54.176;12.102;2024-02-21T06:37:51;8.00;99.90
36552;DHT22;22559;54.176;12.102;2024-02-21T06:40:22;7.90;99.90
36552;DHT22;22559;54.176;12.102;2024-02-21T06:42:47;7.90;99.90
36552;DHT22;22559;54.176;12.102;2024-02-21T06:45:13;7.90;99.90
36552;DHT22;22559;54.176;12.102;2024-02-21T06:47:39;7.90;99.90
36552;DHT22;22559;54.176;12.102;2024-02-21T06:50:05;7.90;99.90
36552;DHT22;22559;54.176;12.102;2024-02-21T06:52:31;7.90;99.90
36552;DHT22;22559;54.176;12.102;2024-02-21T06:54:56;7.90;99.90
36552;DHT22;22559;54.176;12.102;2024-02-21T06:57:22;7.90;99.90
36552;DHT22;22559;54.176;12.102;2024-02-21T06:59:48;8.00;99.90
36552;DHT22;22559;54.176;12.102;2024-02-21T07:02:14;8.00;99.90
36552;DHT22;22559;54.176;12.102;2024-02-21T07:04:39;8.00;99.90
36552;DHT22;22559;54.176;12.102;2024-02-21T07:07:05;8.00;99.90
36552;DHT22;22559;54.176;12.102;2024-02-21T07:09:30;8.00;99.90
36552;DHT22;22559;54.176;12.102;2024-02-21T07:11:58;8.00;99.90
36552;DHT22;22559;54.176;12.102;2024-02-21T07:14:24;8.00;99.90
36552;DHT22;22559;54.176;12.102;2024-02-21T07:16:50;7.90;99.90
36552;DHT22;22559;54.176;12.102;2024-02-21T07:19:16;7.90;99.90
36552;DHT22;22559;54.176;12.102;2024-02-21T07:21:41;8.00;99.90
36552;DHT22;22559;54.176;12.102;2024-02-21T07:24:08;8.30;99.90
36552;DHT22;22559;54.176;12.102;2024-02-21T07:26:33;8.60;99.90
36552;DHT22;22559;54.176;12.102;2024-02-21T07:28:59;8.80;99.90
36552;DHT22;22559;54.176;12.102;2024-02-21T07:31:25;9.00;99.90
36552;DHT22;22559;54.176;12.102;2024-02-21T07:33:50;9.10;99.90
36552;DHT22;22559;54.176;12.102;2024-02-21T07:36:29;8.90;99.90
36552;DHT22;22559;54.176;12.102;2024-02-21T07:38:58;8.80;99.90
36552;DHT22;22559;54.176;12.102;2024-02-21T07:41:25;8.70;99.90
36552;DHT22;22559;54.176;12.102;2024-02-21T07:43:50;8.60;99.90
36552;DHT22;22559;54.176;12.102;2024-02-21T07:46:17;8.60;99.90
36552;DHT22;22559;54.176;12.102;2024-02-21T07:48:44;8.60;99.90
36552;DHT22;22559;54.176;12.102;2024-02-21T07:51:10;8.60;99.90
36552;DHT22;22559;54.176;12.102;2024-02-21T07:53:36;8.60;99.90
36552;DHT22;22559;54.176;12.102;2024-02-21T07:56:01;8.60;99.90
36552;DHT22;22559;54.176;12.102;2024-02-21T07:58:27;8.60;99.90
36552;DHT22;22559;54.176;12.102;2024-02-21T08:00:53;8.70;99.90
36552;DHT22;22559;54.176;12.102;2024-02-21T08:03:18;8.70;99.90
36552;DHT22;22559;54.176;12.102;2024-02-21T08:05:44;8.80;99.90
36552;DHT22;22559;54.176;12.102;2024-02-21T08:08:09;9.10;99.90
36552;DHT22;22559;54.176;12.102;2024-02-21T08:10:35;9.30;99.90
36552;DHT22;22559;54.176;12.102;2024-02-21T08:13:01;9.50;99.90
36552;DHT22;22559;54.176;12.102;2024-02-21T08:15:26;9.70;99.90
36552;DHT22;22559;54.176;12.102;2024-02-21T08:17:55;9.90;99.90
36552;DHT22;22559;54.176;12.102;2024-02-21T08:20:25;10.10;99.90
36552;DHT22;22559;54.176;12.102;2024-02-21T08:22:50;10.30;99.90
36552;DHT22;22559;54.176;12.102;2024-02-21T08:25:16;10.30;99.90
36552;DHT22;22559;54.176;12.102;2024-02-21T08:27:41;10.20;99.90
36552;DHT22;22559;54.176;12.102;2024-02-21T08:30:07;10.30;99.90
36552;DHT22;22559;54.176;12.102;2024-02-21T08:32:33;10.30;99.90
36552;DHT22;22559;54.176;12.102;2024-02-21T08:35:01;10.60;99.90
36552;DHT22;22559;54.176;12.102;2024-02-21T08:37:29;10.80;99.90
36552;DHT22;22559;54.176;12.102;2024-02-21T08:39:55;11.00;99.90
36552;DHT22;22559;54.176;12.102;2024-02-21T08:42:20;11.10;99.90
36552;DHT22;22559;54.176;12.102;2024-02-21T08:44:46;11.10;99.90
36552;DHT22;22559;54.176;12.102;2024-02-21T08:47:12;11.40;99.90
36552;DHT22;22559;54.176;12.102;2024-02-21T08:49:37;11.60;99.90
36552;DHT22;22559;54.176;12.102;2024-02-21T08:52:03;11.70;99.90
36552;DHT22;22559;54.176;12.102;2024-02-21T08:54:29;11.60;99.90
36552;DHT22;22559;54.176;12.102;2024-02-21T08:56:55;11.80;99.90
36552;DHT22;22559;54.176;12.102;2024-02-21T08:59:24;11.70;99.90
36552;DHT22;22559;54.176;12.102;2024-02-21T09:01:52;11.30;99.90
36552;DHT22;22559;54.176;12.102;2024-02-21T09:04:20;10.80;99.90
36552;DHT22;22559;54.176;12.102;2024-02-21T09:06:46;10.40;99.90
36552;DHT22;22559;54.176;12.102;2024-02-21T09:09:12;10.10;99.90
36552;DHT22;22559;54.176;12.102;2024-02-21T09:11:38;9.90;99.90
36552;DHT22;22559;54.176;12.102;2024-02-21T09:14:04;9.80;99.90
36552;DHT22;22559;54.176;12.102;2024-02-21T09:16:33;9.80;99.90
36552;DHT22;22559;54.176;12.102;2024-02-21T09:18:58;9.80;99.90
36552;DHT22;22559;54.176;12.102;2024-02-21T09:21:24;9.70;99.90
36552;DHT22;22559;54.176;12.102;2024-02-21T09:23:50;9.70;99.90
36552;DHT22;22559;54.176;12.102;2024-02-21T09:26:16;9.70;99.90
36552;DHT22;22559;54.176;12.102;2024-02-21T09:28:45;9.70;99.90
36552;DHT22;22559;54.176;12.102;2024-02-21T09:31:11;9.70;99.90
36552;DHT22;22559;54.176;12.102;2024-02-21T09:33:37;9.80;99.90
36552;DHT22;22559;54.176;12.102;2024-02-21T09:36:03;9.80;99.90
36552;DHT22;22559;54.176;12.102;2024-02-21T09:38:31;9.90;99.90
36552;DHT22;22559;54.176;12.102;2024-02-21T09:43:30;10.20;99.90
36552;DHT22;22559;54.176;12.102;2024-02-21T09:45:58;10.20;99.90
36552;DHT22;22559;54.176;12.102;2024-02-21T09:51:21;10.30;99.90
36552;DHT22;22559;54.176;12.102;2024-02-21T09:53:47;10.20;99.90
36552;DHT22;22559;54.176;12.102;2024-02-21T09:56:13;10.30;99.90
36552;DHT22;22559;54.176;12.102;2024-02-21T09:58:39;10.30;99.90
36552;DHT22;22559;54.176;12.102;2024-02-21T10:01:06;10.30;99.90
36552;DHT22;22559;54.176;12.102;2024-02-21T10:03:32;10.40;99.90
36552;DHT22;22559;54.176;12.102;2024-02-21T10:05:58;10.50;99.90
36552;DHT22;22559;54.176;12.102;2024-02-21T10:08:26;10.60;99.90
36552;DHT22;22559;54.176;12.102;2024-02-21T10:10:52;11.00;99.90
36552;DHT22;22559;54.176;12.102;2024-02-21T10:13:28;11.60;99.90
36552;DHT22;22559;54.176;12.102;2024-02-21T10:18:27;11.80;99.90
36552;DHT22;22559;54.176;12.102;2024-02-21T10:21:03;12.30;99.90
36552;DHT22;22559;54.176;12.102;2024-02-21T10:23:29;12.50;99.90
36552;DHT22;22559;54.176;12.102;2024-02-21T10:26:06;12.70;99.90
36552;DHT22;22559;54.176;12.102;2024-02-21T10:28:32;12.80;99.90
36552;DHT22;22559;54.176;12.102;2024-02-21T10:30:58;13.10;99.90
36552;DHT22;22559;54.176;12.102;2024-02-21T10:33:23;13.40;99.90
36552;DHT22;22559;54.176;12.102;2024-02-21T10:35:50;13.10;99.90
36552;DHT22;22559;54.176;12.102;2024-02-21T10:38:17;13.10;99.90
36552;DHT22;22559;54.176;12.102;2024-02-21T10:40:42;13.00;99.90
36552;DHT22;22559;54.176;12.102;2024-02-21T10:43:12;13.00;99.90
36552;DHT22;22559;54.176;12.102;2024-02-21T10:45:41;13.10;99.90
36552;DHT22;22559;54.176;12.102;2024-02-21T10:48:14;13.00;99.90
36552;DHT22;22559;54.176;12.102;2024-02-21T10:50:53;12.80;99.90
36552;DHT22;22559;54.176;12.102;2024-02-21T10:56:31;12.90;99.90
36552;DHT22;22559;54.176;12.102;2024-02-21T10:59:01;13.00;99.90
36552;DHT22;22559;54.176;12.102;2024-02-21T11:01:28;13.00;99.90
36552;DHT22;22559;54.176;12.102;2024-02-21T11:03:58;13.20;99.90
36552;DHT22;22559;54.176;12.102;2024-02-21T11:06:26;13.30;99.90
36552;DHT22;22559;54.176;12.102;2024-02-21T11:09:07;13.40;99.90
36552;DHT22;22559;54.176;12.102;2024-02-21T11:11:38;13.30;99.90
36552;DHT22;22559;54.176;12.102;2024-02-21T11:16:38;13.60;99.90
36552;DHT22;22559;54.176;12.102;2024-02-21T11:19:39;14.10;99.90
36552;DHT22;22559;54.176;12.102;2024-02-21T11:21:58;14.20;99.90
36552;DHT22;22559;54.176;12.102;2024-02-21T11:24:33;14.10;99.90
36552;DHT22;22559;54.176;12.102;2024-02-21T11:27:13;13.90;99.90
36552;DHT22;22559;54.176;12.102;2024-02-21T11:29:49;14.00;99.90
36552;DHT22;22559;54.176;12.102;2024-02-21T11:32:20;14.10;99.90
36552;DHT22;22559;54.176;12.102;2024-02-21T11:35:06;14.20;99.90
36552;DHT22;22559;54.176;12.102;2024-02-21T11:37:33;14.30;99.90
36552;DHT22;22559;54.176;12.102;2024-02-21T11:40:00;14.70;99.90
36552;DHT22;22559;54.176;12.102;2024-02-21T11:42:27;14.90;99.90
36552;DHT22;22559;54.176;12.102;2024-02-21T11:44:54;15.10;99.90
36552;DHT22;22559;54.176;12.102;2024-02-21T11:47:22;15.30;99.90
36552;DHT22;22559;54.176;12.102;2024-02-21T11:49:48;15.50;99.90
36552;DHT22;22559;54.176;12.102;2024-02-21T11:52:25;15.80;99.90
36552;DHT22;22559;54.176;12.102;2024-02-21T11:54:51;15.40;99.90
36552;DHT22;22559;54.176;12.102;2024-02-21T11:57:18;15.40;99.90
36552;DHT22;22559;54.176;12.102;2024-02-21T11:59:45;15.00;99.90
36552;DHT22;22559;54.176;12.102;2024-02-21T12:02:11;15.00;99.90
36552;DHT22;22559;54.176;12.102;2024-02-21T12:04:37;15.10;99.90
36552;DHT22;22559;54.176;12.102;2024-02-21T12:07:03;15.10;99.90
36552;DHT22;22559;54.176;12.102;2024-02-21T12:09:30;14.80;99.90
36552;DHT22;22559;54.176;12.102;2024-02-21T12:12:05;14.30;99.90
36552;DHT22;22559;54.176;12.102;2024-02-21T12:14:33;14.20;99.90
36552;DHT22;22559;54.176;12.102;2024-02-21T12:17:00;14.50;99.90
36552;DHT22;22559;54.176;12.102;2024-02-21T12:19:29;14.30;99.90
36552;DHT22;22559;54.176;12.102;2024-02-21T12:21:54;14.20;99.90
36552;DHT22;22559;54.176;12.102;2024-02-21T12:24:24;14.50;99.90
36552;DHT22;22559;54.176;12.102;2024-02-21T12:26:51;14.60;99.90
36552;DHT22;22559;54.176;12.102;2024-02-21T12:29:18;14.60;99.90
36552;DHT22;22559;54.176;12.102;2024-02-21T12:31:44;14.70;99.90
36552;DHT22;22559;54.176;12.102;2024-02-21T12:34:10;14.40;99.90
36552;DHT22;22559;54.176;12.102;2024-02-21T12:36:43;14.20;99.90
36552;DHT22;22559;54.176;12.102;2024-02-21T12:39:12;14.50;99.90
36552;DHT22;22559;54.176;12.102;2024-02-21T12:41:38;14.60;99.90
36552;DHT22;22559;54.176;12.102;2024-02-21T12:44:05;14.60;99.90
36552;DHT22;22559;54.176;12.102;2024-02-21T12:46:34;14.70;99.90
36552;DHT22;22559;54.176;12.102;2024-02-21T12:49:01;14.90;99.90
36552;DHT22;22559;54.176;12.102;2024-02-21T12:51:26;14.60;99.90
36552;DHT22;22559;54.176;12.102;2024-02-21T12:53:52;14.60;99.90
36552;DHT22;22559;54.176;12.102;2024-02-21T12:56:18;14.00;99.90
36552;DHT22;22559;54.176;12.102;2024-02-21T12:58:43;13.80;99.90
36552;DHT22;22559;54.176;12.102;2024-02-21T13:01:10;13.70;99.90
36552;DHT22;22559;54.176;12.102;2024-02-21T13:03:36;13.50;99.90
36552;DHT22;22559;54.176;12.102;2024-02-21T13:06:01;13.30;99.90
36552;DHT22;22559;54.176;12.102;2024-02-21T13:08:27;13.00;99.90
36552;DHT22;22559;54.176;12.102;2024-02-21T13:10:52;12.90;99.90
36552;DHT22;22559;54.176;12.102;2024-02-21T13:13:19;13.00;99.90
36552;DHT22;22559;54.176;12.102;2024-02-21T13:15:44;12.90;99.90
36552;DHT22;22559;54.176;12.102;2024-02-21T13:18:10;12.90;99.90
36552;DHT22;22559;54.176;12.102;2024-02-21T13:20:36;12.90;99.90
36552;DHT22;22559;54.176;12.102;2024-02-21T13:23:02;13.00;99.90
36552;DHT22;22559;54.176;12.102;2024-02-21T13:25:28;12.80;99.90
36552;DHT22;22559;54.176;12.102;2024-02-21T13:27:54;12.80;99.90
36552;DHT22;22559;54.176;12.102;2024-02-21T13:30:20;12.80;99.90
36552;DHT22;22559;54.176;12.102;2024-02-21T13:32:46;12.60;99.90
36552;DHT22;22559;54.176;12.102;2024-02-21T13:35:12;12.50;99.90
36552;DHT22;22559;54.176;12.102;2024-02-21T13:37:41;12.60;99.90
36552;DHT22;22559;54.176;12.102;2024-02-21T13:40:07;12.60;99.90
36552;DHT22;22559;54.176;12.102;2024-02-21T13:42:36;12.50;99.90
36552;DHT22;22559;54.176;12.102;2024-02-21T13:45:03;12.40;99.90
36552;DHT22;22559;54.176;12.102;2024-02-21T13:47:30;12.20;99.90
36552;DHT22;22559;54.176;12.102;2024-02-21T13:49:56;12.10;99.90
36552;DHT22;22559;54.176;12.102;2024-02-21T13:52:22;12.00;99.90
36552;DHT22;22559;54.176;12.102;2024-02-21T13:54:48;12.00;99.90
36552;DHT22;22559;54.176;12.102;2024-02-21T13:57:14;11.90;99.90
36552;DHT22;22559;54.176;12.102;2024-02-21T13:59:40;11.80;99.90
36552;DHT22;22559;54.176;12.102;2024-02-21T14:02:06;11.80;99.90
36552;DHT22;22559;54.176;12.102;2024-02-21T14:04:34;11.70;99.90
36552;DHT22;22559;54.176;12.102;2024-02-21T14:07:00;11.80;99.90
36552;DHT22;22559;54.176;12.102;2024-02-21T14:09:26;11.70;99.90
36552;DHT22;22559;54.176;12.102;2024-02-21T14:11:53;11.70;99.90
36552;DHT22;22559;54.176;12.102;2024-02-21T14:14:18;11.70;99.90
36552;DHT22;22559;54.176;12.102;2024-02-21T14:16:44;11.70;99.90
36552;DHT22;22559;54.176;12.102;2024-02-21T14:19:10;11.70;99.90
36552;DHT22;22559;54.176;12.102;2024-02-21T14:21:37;11.70;99.90
36552;DHT22;22559;54.176;12.102;2024-02-21T14:24:06;11.70;99.90
36552;DHT22;22559;54.176;12.102;2024-02-21T14:26:32;11.70;99.90
36552;DHT22;22559;54.176;12.102;2024-02-21T14:28:58;11.70;99.90
36552;DHT22;22559;54.176;12.102;2024-02-21T14:31:24;11.80;99.90
36552;DHT22;22559;54.176;12.102;2024-02-21T14:33:51;11.70;99.90
36552;DHT22;22559;54.176;12.102;2024-02-21T14:36:17;11.60;99.90
36552;DHT22;22559;54.176;12.102;2024-02-21T14:38:43;11.60;99.90
36552;DHT22;22559;54.176;12.102;2024-02-21T14:41:09;11.60;99.90
36552;DHT22;22559;54.176;12.102;2024-02-21T14:43:37;11.60;99.90
36552;DHT22;22559;54.176;12.102;2024-02-21T14:46:03;11.60;99.90
36552;DHT22;22559;54.176;12.102;2024-02-21T14:48:30;11.50;99.90
36552;DHT22;22559;54.176;12.102;2024-02-21T14:51:00;11.40;99.90
36552;DHT22;22559;54.176;12.102;2024-02-21T14:53:26;11.40;99.90
36552;DHT22;22559;54.176;12.102;2024-02-21T14:55:51;11.40;99.90
36552;DHT22;22559;54.176;12.102;2024-02-21T14:58:17;11.40;99.90
36552;DHT22;22559;54.176;12.102;2024-02-21T15:00:45;11.30;99.90
36552;DHT22;22559;54.176;12.102;2024-02-21T15:03:10;11.20;99.90
36552;DHT22;22559;54.176;12.102;2024-02-21T15:05:36;11.20;99.90
36552;DHT22;22559;54.176;12.102;2024-02-21T15:08:04;11.10;99.90
36552;DHT22;22559;54.176;12.102;2024-02-21T15:10:29;11.10;99.90
36552;DHT22;22559;54.176;12.102;2024-02-21T15:12:55;11.00;99.90
36552;DHT22;22559;54.176;12.102;2024-02-21T15:15:21;10.90;99.90
36552;DHT22;22559;54.176;12.102;2024-02-21T15:17:47;10.80;99.90
36552;DHT22;22559;54.176;12.102;2024-02-21T15:20:13;10.70;99.90
36552;DHT22;22559;54.176;12.102;2024-02-21T15:22:38;10.70;99.90
36552;DHT22;22559;54.176;12.102;2024-02-21T15:25:04;10.60;99.90
36552;DHT22;22559;54.176;12.102;2024-02-21T15:27:30;10.60;99.90
36552;DHT22;22559;54.176;12.102;2024-02-21T15:29:56;10.60;99.90
36552;DHT22;22559;54.176;12.102;2024-02-21T15:32:25;10.60;99.90
36552;DHT22;22559;54.176;12.102;2024-02-21T15:34:51;10.60;99.90